Time;durP1;ratioP1;P1;durP2;ratioP2;P2;SDS_P1;SDS_P2;PMS_P1;PMS_P2;Temp;Humidity;BMP_temperature;BMP_pressure;BME280_temperature;BME280_humidity;BME280_pressure;Samples;Min_cycle;Max_cycle;Signal;HPM_P1;HPM_P2
2022/10/25 00:01:34;;;;;;;4.47;0.80;;;;;;;;;;5006037;28;20505;-74
2022/10/25 00:04:05;;;;;;;5.32;0.70;;;;;;;;;;5005481;28;20057;-73
2022/10/25 00:06:34;;;;;;;2.45;1.58;;;;;;;;;;5006098;28;20508;-73
2022/10/25 00:09:04;;;;;;;5.57;0.60;;;;;;;;;;5006379;28;20046;-73
2022/10/25 00:11:35;;;;;;;1.98;0.47;;;;;;;;;;5006375;28;20054;-73
2022/10/25 00:14:06;;;;;;;2.75;0.50;;;;;;;;;;5006681;28;20050;-73
2022/10/25 00:16:37;;;;;;;1.33;0.90;;;;;;;;;;5005558;28;20053;-73
2022/10/25 00:19:11;;;;;;;2.78;0.45;;;;;;;;;;5007243;28;20046;-75
2022/10/25 00:21:41;;;;;;;1.27;0.68;;;;;;;;;;5006531;28;20521;-73
2022/10/25 00:24:14;;;;;;;5.90;0.82;;;;;;;;;;5006227;28;20046;-72
2022/10/25 00:26:44;;;;;;;3.65;0.52;;;;;;;;;;5005958;28;20050;-73
2022/10/25 00:29:15;;;;;;;4.15;0.70;;;;;;;;;;5005927;28;20046;-73
2022/10/25 00:31:46;;;;;;;0.60;0.32;;;;;;;;;;5006289;28;20053;-74
2022/10/25 00:34:17;;;;;;;3.13;0.50;;;;;;;;;;5005247;28;20060;-73
2022/10/25 00:36:47;;;;;;;2.10;0.77;;;;;;;;;;5006533;28;20049;-74
2022/10/25 00:39:17;;;;;;;2.90;1.60;;;;;;;;;;5006712;28;20038;-74
2022/10/25 00:41:46;;;;;;;4.55;0.98;;;;;;;;;;5009343;28;20640;-74
2022/10/25 00:44:35;;;;;;;1.17;0.45;;;;;;;;;;5010218;28;21144;-73
2022/10/25 00:47:13;;;;;;;2.60;0.50;;;;;;;;;;5009897;28;20429;-74
2022/10/25 00:49:46;;;;;;;0.60;0.22;;;;;;;;;;5010275;28;20393;-73
2022/10/25 00:52:16;;;;;;;1.55;0.60;;;;;;;;;;5009782;28;20046;-75
2022/10/25 00:54:50;;;;;;;1.70;0.47;;;;;;;;;;5009172;28;20447;-74
2022/10/25 00:57:28;;;;;;;2.67;0.60;;;;;;;;;;5008241;28;20057;-73
2022/10/25 01:00:00;;;;;;;5.22;0.60;;;;;;;;;;5008439;28;20058;-74
2022/10/25 01:02:30;;;;;;;6.72;0.93;;;;;;;;;;5008635;28;20058;-73
2022/10/25 01:05:01;;;;;;;0.30;0.30;;;;;;;;;;5009099;28;20057;-78
2022/10/25 01:07:32;;;;;;;3.17;0.50;;;;;;;;;;5009939;28;20046;-73
2022/10/25 01:10:01;;;;;;;1.45;0.55;;;;;;;;;;5009887;28;20050;-77
2022/10/25 01:12:31;;;;;;;1.80;0.70;;;;;;;;;;5009363;28;20045;-74
2022/10/25 01:15:02;;;;;;;5.25;0.70;;;;;;;;;;5009128;28;20509;-73
2022/10/25 01:17:56;;;;;;;2.00;0.20;;;;;;;;;;5008946;28;20052;-73
2022/10/25 01:20:32;;;;;;;4.28;0.60;;;;;;;;;;5007969;28;20050;-73
2022/10/25 01:23:38;;;;;;;5.40;0.75;;;;;;;;;;5009455;28;20054;-74
2022/10/25 01:26:57;;;;;;;2.35;0.80;;;;;;;;;;5009432;28;20048;-73
2022/10/25 01:29:27;;;;;;;1.10;0.30;;;;;;;;;;4966752;28;20539;-72
2022/10/25 01:32:09;;;;;;;5.00;0.60;;;;;;;;;;5007932;28;20061;-73
2022/10/25 01:34:55;;;;;;;1.20;0.85;;;;;;;;;;5007995;28;20074;-73
2022/10/25 01:37:42;;;;;;;0.82;0.20;;;;;;;;;;5008069;28;20046;-73
2022/10/25 01:40:30;;;;;;;5.25;0.52;;;;;;;;;;5008514;28;20069;-73
2022/10/25 01:43:25;;;;;;;0.40;0.40;;;;;;;;;;5007783;28;20172;-73
2022/10/25 01:46:09;;;;;;;5.97;2.65;;;;;;;;;;5008665;28;20042;-72
2022/10/25 01:48:48;;;;;;;1.33;0.30;;;;;;;;;;5008676;28;20409;-73
2022/10/25 01:51:18;;;;;;;1.83;0.60;;;;;;;;;;5007917;28;20125;-74
2022/10/25 01:53:50;;;;;;;2.15;0.30;;;;;;;;;;5008748;28;20053;-74
2022/10/25 01:56:30;;;;;;;2.70;0.43;;;;;;;;;;5008476;28;20416;-73
2022/10/25 01:59:24;;;;;;;2.53;0.38;;;;;;;;;;5009248;28;20068;-72
2022/10/25 02:02:15;;;;;;;0.25;0.25;;;;;;;;;;5008481;28;20053;-73
2022/10/25 02:05:15;;;;;;;3.40;0.40;;;;;;;;;;4990551;28;20053;-73
2022/10/25 02:08:03;;;;;;;2.22;0.43;;;;;;;;;;5008163;28;20511;-74
2022/10/25 02:11:02;;;;;;;4.65;0.60;;;;;;;;;;5008240;28;20527;-73
2022/10/25 02:13:36;;;;;;;4.88;0.77;;;;;;;;;;4993123;28;20428;-73
2022/10/25 02:16:14;;;;;;;2.05;0.80;;;;;;;;;;5007980;28;20057;-77
2022/10/25 02:18:48;;;;;;;2.63;0.70;;;;;;;;;;5008025;28;20405;-73
2022/10/25 02:21:19;;;;;;;1.48;0.40;;;;;;;;;;5007925;28;20410;-73
2022/10/25 02:23:50;;;;;;;2.75;0.70;;;;;;;;;;5008119;28;20061;-73
2022/10/25 02:26:21;;;;;;;3.35;0.47;;;;;;;;;;4991039;28;20073;-73
2022/10/25 02:28:52;;;;;;;1.80;0.73;;;;;;;;;;5007843;28;20067;-72
2022/10/25 02:31:25;;;;;;;2.03;0.40;;;;;;;;;;5007877;28;20064;-73
2022/10/25 02:33:55;;;;;;;2.10;0.22;;;;;;;;;;5007386;28;20049;-73
2022/10/25 02:36:26;;;;;;;1.25;0.50;;;;;;;;;;5007961;28;20053;-73
2022/10/25 02:38:57;;;;;;;3.58;0.45;;;;;;;;;;5008078;28;20046;-72
2022/10/25 02:41:28;;;;;;;0.98;0.47;;;;;;;;;;5007039;28;20064;-73
2022/10/25 02:43:58;;;;;;;2.97;0.52;;;;;;;;;;5007367;28;20062;-72
2022/10/25 02:46:28;;;;;;;2.92;0.35;;;;;;;;;;5007288;28;20058;-73
2022/10/25 02:48:58;;;;;;;1.40;0.60;;;;;;;;;;4990168;28;20490;-74
2022/10/25 02:51:28;;;;;;;1.35;0.47;;;;;;;;;;5008177;28;20045;-72
2022/10/25 02:53:58;;;;;;;2.70;0.80;;;;;;;;;;5007859;28;20489;-72
2022/10/25 02:56:27;;;;;;;1.42;0.75;;;;;;;;;;5007338;28;20515;-72
2022/10/25 02:58:58;;;;;;;1.55;0.40;;;;;;;;;;5006992;28;20505;-74
2022/10/25 03:01:27;;;;;;;0.98;0.20;;;;;;;;;;5006722;28;20056;-75
2022/10/25 03:03:57;;;;;;;3.92;0.70;;;;;;;;;;5007405;28;20049;-73
2022/10/25 03:06:30;;;;;;;1.42;0.35;;;;;;;;;;5007136;28;20057;-72
2022/10/25 03:09:00;;;;;;;0.47;0.47;;;;;;;;;;5007451;28;20050;-74
2022/10/25 03:11:30;;;;;;;1.98;0.60;;;;;;;;;;5007574;28;20060;-72
2022/10/25 03:14:00;;;;;;;1.13;0.52;;;;;;;;;;4990094;28;20041;-73
2022/10/25 03:16:29;;;;;;;2.67;0.55;;;;;;;;;;5006771;28;20057;-72
2022/10/25 03:18:59;;;;;;;3.88;0.40;;;;;;;;;;5007017;28;20056;-72
2022/10/25 03:21:29;;;;;;;2.85;0.68;;;;;;;;;;5006436;28;20604;-74
2022/10/25 03:23:59;;;;;;;5.35;0.60;;;;;;;;;;5007043;28;20050;-73
2022/10/25 03:26:29;;;;;;;2.75;0.35;;;;;;;;;;5006852;28;20046;-74
2022/10/25 03:28:59;;;;;;;5.43;0.77;;;;;;;;;;5006711;28;20057;-74
2022/10/25 03:31:28;;;;;;;;;;;;;;;;;;5007323;28;20054;-74
2022/10/25 03:33:58;;;;;;;4.22;0.43;;;;;;;;;;5006646;28;19921;-72
2022/10/25 03:36:28;;;;;;;2.70;0.30;;;;;;;;;;5007059;28;20061;-75
2022/10/25 03:38:58;;;;;;;2.25;0.52;;;;;;;;;;5006863;28;20046;-74
2022/10/25 03:41:29;;;;;;;3.33;0.55;;;;;;;;;;5006952;28;20062;-73
2022/10/25 03:43:58;;;;;;;;;;;;;;;;;;5007482;28;20863;-74
2022/10/25 03:46:27;;;;;;;4.40;0.68;;;;;;;;;;5006959;28;19925;-72
2022/10/25 03:48:57;;;;;;;0.60;0.50;;;;;;;;;;5006561;28;20042;-73
2022/10/25 03:51:26;;;;;;;;;;;;;;;;;;5007143;28;20417;-74
2022/10/25 03:53:58;;;;;;;2.13;0.50;;;;;;;;;;5006547;28;20292;-73
2022/10/25 03:56:28;;;;;;;1.35;0.60;;;;;;;;;;5007061;28;20780;-74
2022/10/25 03:58:58;;;;;;;5.00;0.50;;;;;;;;;;5006538;28;20049;-73
2022/10/25 04:01:28;;;;;;;4.10;1.08;;;;;;;;;;5007324;28;20057;-74
2022/10/25 04:03:58;;;;;;;1.33;0.35;;;;;;;;;;5006246;28;20042;-73
2022/10/25 04:06:28;;;;;;;1.35;0.50;;;;;;;;;;5006348;28;20050;-72
2022/10/25 04:08:58;;;;;;;4.45;0.60;;;;;;;;;;5005158;28;21028;-73
2022/10/25 04:11:28;;;;;;;4.65;0.73;;;;;;;;;;5006906;28;20046;-73
2022/10/25 06:11:04;;;;;;;5.93;0.80;;;;;;;;;;5009238;28;20045;-73
2022/10/25 06:13:37;;;;;;;0.98;0.45;;;;;;;;;;5007826;28;20516;-73
2022/10/25 06:16:40;;;;;;;3.03;0.40;;;;;;;;;;5008280;28;20046;-73
2022/10/25 06:19:11;;;;;;;1.45;0.30;;;;;;;;;;5008077;28;20041;-73
2022/10/25 06:21:41;;;;;;;;;;;;;;;;;;5008593;28;20052;-73
2022/10/25 06:24:10;;;;;;;3.20;0.52;;;;;;;;;;5007993;28;19925;-73
2022/10/25 06:26:44;;;;;;;4.25;0.50;;;;;;;;;;5008256;28;20069;-73
2022/10/25 06:29:13;;;;;;;;;;;;;;;;;;5008500;28;20038;-73
2022/10/25 06:31:43;;;;;;;1.45;0.45;;;;;;;;;;4990130;28;20478;-73
2022/10/25 06:34:13;;;;;;;1.13;0.55;;;;;;;;;;5007802;28;20041;-73
2022/10/25 06:36:45;;;;;;;0.77;0.50;;;;;;;;;;4989751;28;20477;-73
2022/10/25 06:39:14;;;;;;;;;;;;;;;;;;5008320;28;20501;-74
2022/10/25 06:41:44;;;;;;;4.20;1.00;;;;;;;;;;5007430;28;20003;-73
2022/10/25 06:44:15;;;;;;;0.60;0.60;;;;;;;;;;4990183;28;20058;-73
2022/10/25 06:46:46;;;;;;;2.28;0.40;;;;;;;;;;5007476;28;20436;-73
2022/10/25 06:49:36;;;;;;;4.45;0.60;;;;;;;;;;5007686;28;20050;-73
2022/10/25 06:52:06;;;;;;;1.00;0.40;;;;;;;;;;5007654;28;20050;-73
2022/10/25 06:54:35;;;;;;;;;;;;;;;;;;5008463;28;20049;-72
2022/10/25 06:57:05;;;;;;;3.55;0.60;;;;;;;;;;4989915;28;19925;-73
2022/10/25 06:59:35;;;;;;;4.53;0.60;;;;;;;;;;5007387;28;20060;-73
2022/10/25 07:02:05;;;;;;;0.55;0.45;;;;;;;;;;5007347;28;20058;-73
2022/10/25 07:04:35;;;;;;;2.30;0.70;;;;;;;;;;5007330;28;20062;-73
2022/10/25 07:07:04;;;;;;;;;;;;;;;;;;5007981;28;20053;-72
2022/10/25 07:09:34;;;;;;;1.13;0.47;;;;;;;;;;5006841;28;19925;-73
2022/10/25 07:12:04;;;;;;;1.67;0.30;;;;;;;;;;5007453;28;20064;-73
2022/10/25 07:14:40;;;;;;;0.50;0.50;;;;;;;;;;5007266;28;20520;-73
2022/10/25 07:17:10;;;;;;;2.30;0.73;;;;;;;;;;5007256;28;20473;-72
2022/10/25 07:19:40;;;;;;;;;;;;;;;;;;4990621;28;20049;-72
2022/10/25 07:22:09;;;;;;;0.60;0.60;;;;;;;;;;5006968;28;19926;-73
2022/10/25 07:24:39;;;;;;;;;;;;;;;;;;5007829;28;20121;-73
2022/10/25 07:27:08;;;;;;;3.50;0.70;;;;;;;;;;5007124;28;19930;-73
2022/10/25 07:29:38;;;;;;;0.55;0.50;;;;;;;;;;5006885;28;20753;-73
2022/10/25 07:32:08;;;;;;;0.65;0.50;;;;;;;;;;5006377;28;20045;-73
2022/10/25 07:34:38;;;;;;;2.60;0.57;;;;;;;;;;5006556;28;20054;-73
2022/10/25 07:37:08;;;;;;;2.53;0.75;;;;;;;;;;5006460;28;20077;-73
2022/10/25 07:39:37;;;;;;;;;;;;;;;;;;5007323;28;20045;-73
2022/10/25 07:42:07;;;;;;;3.33;0.70;;;;;;;;;;5007005;28;19925;-73
2022/10/25 07:44:37;;;;;;;2.30;0.60;;;;;;;;;;5006844;28;20392;-73
2022/10/25 07:47:06;;;;;;;;;;;;;;;;;;5007617;28;20053;-72
2022/10/25 07:49:37;;;;;;;2.28;0.47;;;;;;;;;;5006581;28;19928;-72
2022/10/25 07:52:07;;;;;;;3.97;0.63;;;;;;;;;;5006682;28;20053;-73
2022/10/25 07:54:36;;;;;;;;;;;;;;;;;;5006947;28;20049;-73
2022/10/25 07:57:06;;;;;;;2.47;0.52;;;;;;;;;;5006311;28;19933;-72
2022/10/25 07:59:36;;;;;;;1.48;0.60;;;;;;;;;;5007278;28;20528;-73
2022/10/25 08:02:07;;;;;;;;;;;;;;;;;;5006521;28;20057;-73
2022/10/25 08:04:37;;;;;;;0.73;0.70;;;;;;;;;;5006731;28;19941;-73
2022/10/25 08:07:06;;;;;;;;;;;;;;;;;;5007344;28;20050;-72
2022/10/25 08:09:36;;;;;;;0.75;0.60;;;;;;;;;;5006380;28;19926;-72
2022/10/25 08:12:06;;;;;;;0.93;0.50;;;;;;;;;;5005840;28;20077;-73
2022/10/25 08:14:36;;;;;;;1.10;0.70;;;;;;;;;;5006398;28;20160;-72
2022/10/25 08:17:11;;;;;;;1.30;0.35;;;;;;;;;;5006181;28;20421;-74
2022/10/25 08:19:41;;;;;;;0.90;0.60;;;;;;;;;;5005896;28;20053;-73
2022/10/25 08:22:16;;;;;;;0.68;0.50;;;;;;;;;;5005992;28;20053;-72
2022/10/25 08:24:46;;;;;;;1.17;0.70;;;;;;;;;;5006690;28;20595;-72
2022/10/25 08:27:15;;;;;;;;;;;;;;;;;;5006712;28;20034;-72
2022/10/25 08:29:45;;;;;;;6.82;0.60;;;;;;;;;;5006494;28;20381;-72
2022/10/25 08:32:15;;;;;;;0.75;0.32;;;;;;;;;;4989455;28;20069;-72
2022/10/25 08:34:45;;;;;;;;;;;;;;;;;;5006249;28;20057;-72
2022/10/25 08:37:15;;;;;;;1.58;0.57;;;;;;;;;;5005864;28;19941;-72
2022/10/25 08:39:45;;;;;;;;;;;;;;;;;;5006478;28;20053;-72
2022/10/25 08:42:42;;;;;;;0.40;0.40;;;;;;;;;;5005562;28;19925;-73
2022/10/25 08:45:54;;;;;;;0.57;0.50;;;;;;;;;;5006211;28;20052;-75
2022/10/25 08:48:31;;;;;;;3.70;0.75;;;;;;;;;;4988546;28;20584;-73
2022/10/25 08:51:06;;;;;;;4.55;0.98;;;;;;;;;;5005976;28;20046;-72
2022/10/25 08:53:47;;;;;;;0.40;0.40;;;;;;;;;;4988895;28;20046;-72
2022/10/25 08:56:18;;;;;;;2.15;0.90;;;;;;;;;;5006859;28;20489;-72
2022/10/25 08:58:59;;;;;;;0.85;0.43;;;;;;;;;;5005320;28;20505;-72
2022/10/25 09:01:43;;;;;;;0.75;0.57;;;;;;;;;;5007910;28;20049;-73
2022/10/25 09:04:14;;;;;;;1.40;0.63;;;;;;;;;;5009592;28;20054;-72
2022/10/25 09:06:58;;;;;;;1.00;0.55;;;;;;;;;;5009561;28;20527;-72
2022/10/25 09:09:38;;;;;;;1.65;0.43;;;;;;;;;;5009625;28;20408;-72
2022/10/25 09:12:14;;;;;;;1.65;0.70;;;;;;;;;;5009149;28;20046;-72
2022/10/25 09:14:50;;;;;;;0.80;0.80;;;;;;;;;;5009503;28;20057;-72
2022/10/25 09:17:25;;;;;;;2.05;0.90;;;;;;;;;;5009531;28;20049;-73
2022/10/25 09:20:17;;;;;;;4.60;1.20;;;;;;;;;;4992584;28;20531;-72
2022/10/25 09:22:53;;;;;;;3.53;0.82;;;;;;;;;;5009323;28;20057;-73
2022/10/25 09:25:33;;;;;;;2.33;1.20;;;;;;;;;;5009431;28;20053;-73
2022/10/25 09:28:15;;;;;;;3.70;1.55;;;;;;;;;;5008935;28;20049;-74
2022/10/25 09:30:45;;;;;;;;;;;;;;;;;;5009472;28;20050;-74
2022/10/25 09:33:21;;;;;;;3.30;1.60;;;;;;;;;;5009026;28;19954;-74
2022/10/25 09:35:56;;;;;;;4.20;2.72;;;;;;;;;;5009184;28;20053;-75
2022/10/25 09:38:40;;;;;;;3.22;1.83;;;;;;;;;;5009143;28;20405;-74
2022/10/25 09:41:21;;;;;;;2.53;1.40;;;;;;;;;;5008615;28;20057;-74
2022/10/25 09:44:17;;;;;;;2.20;1.52;;;;;;;;;;5009064;28;20050;-75
2022/10/25 09:46:52;;;;;;;1.90;1.20;;;;;;;;;;5009156;28;20061;-75
2022/10/25 09:49:33;;;;;;;1.75;1.20;;;;;;;;;;5008551;28;20042;-80
2022/10/25 09:52:12;;;;;;;1.77;1.00;;;;;;;;;;4991060;28;20524;-75
2022/10/25 09:55:05;;;;;;;1.77;1.20;;;;;;;;;;5008569;28;20049;-74
2022/10/25 09:57:35;;;;;;;1.42;0.70;;;;;;;;;;5008546;28;20438;-74
2022/10/25 10:00:06;;;;;;;2.38;0.77;;;;;;;;;;5009042;28;20691;-74
2022/10/25 10:02:41;;;;;;;1.05;0.50;;;;;;;;;;4991923;28;20049;-76
2022/10/25 10:05:17;;;;;;;4.47;1.08;;;;;;;;;;5008685;28;20053;-74
2022/10/25 10:07:48;;;;;;;2.50;1.08;;;;;;;;;;5008755;28;20045;-74
2022/10/25 10:10:24;;;;;;;3.47;0.80;;;;;;;;;;4990881;28;20060;-74
2022/10/25 10:13:03;;;;;;;2.05;1.27;;;;;;;;;;5008265;28;20045;-75
2022/10/25 10:15:43;;;;;;;1.63;0.43;;;;;;;;;;5007954;28;20053;-74
2022/10/25 10:18:28;;;;;;;2.50;1.60;;;;;;;;;;4990807;28;20409;-74
2022/10/25 10:21:27;;;;;;;5.40;0.88;;;;;;;;;;5008185;28;20065;-74
2022/10/25 10:24:05;;;;;;;2.38;0.75;;;;;;;;;;4996178;28;20054;-74
2022/10/25 10:26:44;;;;;;;7.93;1.83;;;;;;;;;;5007733;28;20224;-74
2022/10/25 10:29:21;;;;;;;0.65;0.50;;;;;;;;;;5008316;28;20477;-73
2022/10/25 10:31:55;;;;;;;1.33;0.60;;;;;;;;;;5008519;28;20046;-75
2022/10/25 10:34:26;;;;;;;1.35;0.75;;;;;;;;;;5007838;28;20053;-74
2022/10/25 10:37:21;;;;;;;1.08;0.50;;;;;;;;;;5007965;28;20050;-76
2022/10/25 10:39:54;;;;;;;1.90;0.80;;;;;;;;;;5007428;28;20045;-74
2022/10/25 10:42:34;;;;;;;1.48;0.60;;;;;;;;;;4990325;28;20427;-74
2022/10/25 10:45:14;;;;;;;2.67;0.70;;;;;;;;;;4988197;28;20803;-75
2022/10/25 10:47:50;;;;;;;0.57;0.32;;;;;;;;;;4988016;28;20057;-74
2022/10/25 10:50:20;;;;;;;2.85;0.65;;;;;;;;;;4987546;28;20042;-74
2022/10/25 10:53:04;;;;;;;2.13;1.10;;;;;;;;;;4987752;28;20818;-74
2022/10/25 10:55:50;;;;;;;2.33;0.40;;;;;;;;;;4988059;28;20046;-73
2022/10/25 10:58:41;;;;;;;1.10;0.57;;;;;;;;;;4970323;28;20046;-74
2022/10/25 11:01:15;;;;;;;0.82;0.47;;;;;;;;;;4988015;28;20046;-74
2022/10/25 11:03:48;;;;;;;3.25;0.52;;;;;;;;;;4970159;28;20533;-76
2022/10/25 11:06:34;;;;;;;1.55;0.50;;;;;;;;;;4987590;28;20052;-74
2022/10/25 11:09:11;;;;;;;2.65;0.50;;;;;;;;;;4970362;28;20069;-74
2022/10/25 11:11:42;;;;;;;0.88;0.50;;;;;;;;;;4987943;28;20045;-74
2022/10/25 11:14:18;;;;;;;0.77;0.52;;;;;;;;;;4987494;28;20417;-74
2022/10/25 11:17:11;;;;;;;2.58;0.70;;;;;;;;;;4970577;28;20042;-73
2022/10/25 11:19:45;;;;;;;0.93;0.50;;;;;;;;;;4988102;28;20050;-73
2022/10/25 11:22:15;;;;;;;4.20;0.93;;;;;;;;;;4987417;28;20050;-74
2022/10/25 11:24:54;;;;;;;1.33;0.93;;;;;;;;;;4986894;28;20051;-74
2022/10/25 11:27:42;;;;;;;2.05;0.63;;;;;;;;;;4987687;28;20050;-75
2022/10/25 11:30:16;;;;;;;0.70;0.50;;;;;;;;;;4987560;28;20050;-75
2022/10/25 11:32:51;;;;;;;3.70;0.90;;;;;;;;;;4987377;28;20042;-74
2022/10/25 11:35:51;;;;;;;4.78;0.70;;;;;;;;;;4987059;28;20070;-75
2022/10/25 11:38:32;;;;;;;3.92;0.80;;;;;;;;;;4985620;28;20042;-75
2022/10/25 11:41:26;;;;;;;1.75;0.50;;;;;;;;;;4986165;28;20038;-74
2022/10/25 11:44:30;;;;;;;6.43;1.40;;;;;;;;;;4986870;28;20425;-74
2022/10/25 11:47:04;;;;;;;3.13;0.65;;;;;;;;;;4969488;28;20046;-75
2022/10/25 11:49:57;;;;;;;4.03;0.40;;;;;;;;;;4986390;28;20498;-75
2022/10/25 11:53:02;;;;;;;1.40;0.55;;;;;;;;;;4985447;28;20417;-74
2022/10/25 11:55:56;;;;;;;0.73;0.40;;;;;;;;;;4975082;28;20073;-75
2022/10/25 11:58:52;;;;;;;1.33;0.40;;;;;;;;;;4969629;28;20070;-76
2022/10/25 12:01:40;;;;;;;2.10;0.73;;;;;;;;;;4986580;28;20061;-75
2022/10/25 12:04:31;;;;;;;1.75;0.57;;;;;;;;;;4987011;28;20049;-75
2022/10/25 12:07:34;;;;;;;1.60;0.40;;;;;;;;;;4986917;28;20038;-74
2022/10/25 12:10:35;;;;;;;4.28;0.60;;;;;;;;;;4987099;28;20065;-74
2022/10/25 12:13:11;;;;;;;4.28;3.67;;;;;;;;;;4986613;28;20053;-78
2022/10/25 12:15:47;;;;;;;0.82;0.47;;;;;;;;;;4986643;28;20046;-74
2022/10/25 12:18:49;;;;;;;1.50;0.47;;;;;;;;;;4986257;28;20572;-74
2022/10/25 12:21:27;;;;;;;2.25;0.80;;;;;;;;;;4986450;28;20055;-74
2022/10/25 12:24:00;;;;;;;3.85;0.82;;;;;;;;;;4986681;28;20533;-73
2022/10/25 12:26:39;;;;;;;13.00;0.75;;;;;;;;;;4986848;28;20374;-74
2022/10/25 12:29:19;;;;;;;7.43;0.40;;;;;;;;;;4986435;28;20528;-74
2022/10/25 12:31:55;;;;;;;1.05;0.40;;;;;;;;;;4987299;28;20050;-79
2022/10/25 12:34:37;;;;;;;2.13;0.40;;;;;;;;;;4986521;28;20049;-74
2022/10/25 12:37:23;;;;;;;0.52;0.30;;;;;;;;;;4990247;28;20421;-74
2022/10/25 12:39:53;;;;;;;4.05;2.38;;;;;;;;;;4989985;28;20053;-75
2022/10/25 12:42:30;;;;;;;1.90;0.90;;;;;;;;;;4972814;28;20521;-74
2022/10/25 12:45:22;;;;;;;8.10;4.10;;;;;;;;;;4990614;28;20057;-75
2022/10/25 12:48:04;;;;;;;1.75;0.80;;;;;;;;;;4989927;28;20050;-75
2022/10/25 12:50:40;;;;;;;2.30;0.73;;;;;;;;;;4990356;28;20050;-75
2022/10/25 12:53:47;;;;;;;2.22;1.45;;;;;;;;;;4990277;28;20076;-74
2022/10/25 12:56:32;;;;;;;1.05;0.90;;;;;;;;;;4990439;28;20529;-74
2022/10/25 12:59:28;;;;;;;0.73;0.52;;;;;;;;;;4989839;28;20054;-74
2022/10/25 13:02:10;;;;;;;5.57;1.20;;;;;;;;;;4990379;28;20046;-74
2022/10/25 13:05:11;;;;;;;17.92;6.55;;;;;;;;;;4972639;28;20069;-74
2022/10/25 13:07:42;;;;;;;8.30;0.90;;;;;;;;;;4989876;28;20046;-74
2022/10/25 13:10:22;;;;;;;2.97;0.68;;;;;;;;;;4987949;28;20050;-74
2022/10/25 13:13:07;;;;;;;1.58;1.23;;;;;;;;;;4989440;28;20046;-74
2022/10/25 13:15:47;;;;;;;1.00;0.55;;;;;;;;;;4990117;28;20163;-75
2022/10/25 13:18:34;;;;;;;1.45;0.65;;;;;;;;;;4990044;28;20077;-74
2022/10/25 13:21:16;;;;;;;0.93;0.63;;;;;;;;;;4989968;28;20047;-75
2022/10/25 13:23:58;;;;;;;1.23;0.60;;;;;;;;;;4989672;28;20046;-76
2022/10/25 13:26:30;;;;;;;;;;;;;;;;;;4989663;28;20049;-74
2022/10/25 13:29:03;;;;;;;0.88;0.75;;;;;;;;;;4989855;28;19932;-75
2022/10/25 13:31:33;;;;;;;4.95;0.80;;;;;;;;;;4989067;28;20050;-76
2022/10/25 13:34:12;;;;;;;3.50;1.35;;;;;;;;;;4989490;28;20051;-74
2022/10/25 13:36:47;;;;;;;0.73;0.70;;;;;;;;;;4987505;28;20066;-75
2022/10/25 13:39:43;;;;;;;0.98;0.75;;;;;;;;;;4989481;28;20512;-74
2022/10/25 13:42:13;;;;;;;1.77;0.73;;;;;;;;;;4989100;28;20042;-75
2022/10/25 13:45:01;;;;;;;2.00;0.88;;;;;;;;;;4989101;28;20038;-74
2022/10/25 13:47:39;;;;;;;0.90;0.60;;;;;;;;;;4989058;28;20053;-74
2022/10/25 13:50:29;;;;;;;1.08;0.75;;;;;;;;;;4972207;28;20046;-80
2022/10/25 13:52:59;;;;;;;5.75;0.90;;;;;;;;;;4989289;28;20046;-75
2022/10/25 13:55:35;;;;;;;0.93;0.70;;;;;;;;;;4989388;28;20054;-75
2022/10/25 13:58:30;;;;;;;3.08;2.00;;;;;;;;;;4988501;28;20057;-74
2022/10/25 14:01:16;;;;;;;1.17;0.70;;;;;;;;;;4988718;28;20049;-74
2022/10/25 14:04:08;;;;;;;0.95;0.82;;;;;;;;;;4988733;28;20057;-76
2022/10/25 14:06:40;;;;;;;1.45;0.73;;;;;;;;;;4988680;28;20050;-75
2022/10/25 14:09:38;;;;;;;0.98;0.73;;;;;;;;;;4989401;28;20544;-75
2022/10/25 14:12:16;;;;;;;0.60;0.60;;;;;;;;;;4989244;28;20050;-75
2022/10/25 14:15:15;;;;;;;1.67;0.77;;;;;;;;;;4988756;28;20466;-76
2022/10/25 14:17:45;;;;;;;1.05;0.65;;;;;;;;;;4988145;28;20088;-75
2022/10/25 14:20:31;;;;;;;1.80;0.93;;;;;;;;;;4988522;28;20050;-75
2022/10/25 14:23:13;;;;;;;0.95;0.70;;;;;;;;;;4988347;28;20046;-81
2022/10/25 14:25:55;;;;;;;1.30;0.90;;;;;;;;;;4988426;28;20054;-76
2022/10/25 14:28:29;;;;;;;1.65;0.70;;;;;;;;;;4988234;28;20774;-78
2022/10/25 14:31:02;;;;;;;0.80;0.65;;;;;;;;;;4988440;28;20050;-77
2022/10/25 14:33:33;;;;;;;1.67;0.88;;;;;;;;;;4988620;28;20061;-77
2022/10/25 14:36:22;;;;;;;2.00;0.73;;;;;;;;;;4988522;28;20053;-80
2022/10/25 14:38:53;;;;;;;1.67;0.90;;;;;;;;;;4971534;28;20053;-76
2022/10/25 14:41:26;;;;;;;1.10;0.80;;;;;;;;;;4988447;28;20046;-77
2022/10/25 14:43:56;;;;;;;1.00;0.73;;;;;;;;;;4988011;28;20425;-75
2022/10/25 14:46:29;;;;;;;0.77;0.77;;;;;;;;;;4987808;28;20893;-76
2022/10/25 14:49:00;;;;;;;1.38;0.75;;;;;;;;;;4988030;28;20540;-76
2022/10/25 14:51:42;;;;;;;3.05;0.82;;;;;;;;;;4987546;28;20050;-75
2022/10/25 14:54:14;;;;;;;1.15;0.68;;;;;;;;;;4987834;28;20047;-76
2022/10/25 14:56:45;;;;;;;2.05;0.82;;;;;;;;;;4988729;28;20057;-80
2022/10/25 14:59:39;;;;;;;3.35;0.90;;;;;;;;;;4987430;28;20042;-75
2022/10/25 15:02:32;;;;;;;2.75;0.90;;;;;;;;;;4988379;28;20046;-76
2022/10/25 15:05:03;;;;;;;1.88;0.90;;;;;;;;;;4987899;28;20513;-76
2022/10/25 15:07:39;;;;;;;1.77;0.80;;;;;;;;;;4987685;28;20053;-76
2022/10/25 15:10:27;;;;;;;3.03;1.02;;;;;;;;;;4987439;28;20054;-77
2022/10/25 15:13:27;;;;;;;1.48;0.80;;;;;;;;;;4987608;28;20046;-76
2022/10/25 15:16:02;;;;;;;1.27;0.85;;;;;;;;;;4960812;28;20529;-77
2022/10/25 15:18:37;;;;;;;1.25;0.90;;;;;;;;;;4987295;28;20061;-79
2022/10/25 15:21:19;;;;;;;0.73;0.50;;;;;;;;;;4987504;28;20046;-78
2022/10/25 15:24:17;;;;;;;1.05;0.50;;;;;;;;;;4987774;28;20046;-77
2022/10/25 15:26:58;;;;;;;1.98;0.70;;;;;;;;;;4987659;28;20057;-77
2022/10/25 15:29:49;;;;;;;0.52;0.52;;;;;;;;;;4987751;28;20528;-74
2022/10/25 15:32:22;;;;;;;1.02;0.52;;;;;;;;;;4987533;28;20051;-75
2022/10/25 15:34:58;;;;;;;1.17;0.80;;;;;;;;;;4987298;28;20057;-75
2022/10/25 15:37:29;;;;;;;0.95;0.80;;;;;;;;;;4987120;28;20387;-75
2022/10/25 15:40:00;;;;;;;3.72;0.80;;;;;;;;;;4987445;28;20774;-78
2022/10/25 15:42:29;;;;;;;1.90;0.95;;;;;;;;;;4987290;28;20061;-75
2022/10/25 15:45:03;;;;;;;1.45;0.88;;;;;;;;;;4986936;28;20049;-74
2022/10/25 15:47:36;;;;;;;1.60;0.73;;;;;;;;;;4987260;28;20038;-75
2022/10/25 15:50:15;;;;;;;1.85;0.80;;;;;;;;;;4987633;28;20073;-74
2022/10/25 15:52:45;;;;;;;1.20;0.63;;;;;;;;;;4970246;28;20042;-75
2022/10/25 15:55:21;;;;;;;1.80;1.00;;;;;;;;;;4987073;28;20418;-74
2022/10/25 15:57:52;;;;;;;0.70;0.70;;;;;;;;;;4987021;28;20354;-74
2022/10/25 16:00:24;;;;;;;2.13;0.80;;;;;;;;;;4986661;28;20049;-73
2022/10/25 16:02:57;;;;;;;3.17;1.40;;;;;;;;;;4986680;28;20042;-75
2022/10/25 16:05:31;;;;;;;1.20;0.55;;;;;;;;;;4987338;28;20413;-74
2022/10/25 16:08:02;;;;;;;1.20;0.80;;;;;;;;;;4986478;28;20038;-74
2022/10/25 16:10:32;;;;;;;1.13;0.80;;;;;;;;;;4989343;28;20564;-72
2022/10/25 16:13:10;;;;;;;1.45;0.80;;;;;;;;;;4990908;28;20050;-73
2022/10/25 16:15:41;;;;;;;1.30;1.10;;;;;;;;;;4991226;28;20047;-73
2022/10/25 16:18:11;;;;;;;4.07;0.70;;;;;;;;;;4990797;28;20413;-75
2022/10/25 16:20:41;;;;;;;0.90;0.70;;;;;;;;;;4973151;28;20391;-73
2022/10/25 16:23:11;;;;;;;0.60;0.60;;;;;;;;;;4990851;28;20050;-75
2022/10/25 16:25:42;;;;;;;1.33;0.85;;;;;;;;;;4990718;28;20486;-73
2022/10/25 16:28:13;;;;;;;1.75;0.60;;;;;;;;;;4990124;28;20509;-73
2022/10/25 16:30:44;;;;;;;0.45;0.45;;;;;;;;;;4990970;28;20065;-75
2022/10/25 16:33:14;;;;;;;0.60;0.52;;;;;;;;;;4990763;28;20057;-74
2022/10/25 16:35:44;;;;;;;0.57;0.57;;;;;;;;;;4973092;28;20058;-73
2022/10/25 16:38:15;;;;;;;0.65;0.63;;;;;;;;;;4990829;28;20043;-78
2022/10/25 16:40:46;;;;;;;1.25;0.60;;;;;;;;;;4990791;28;20055;-73
2022/10/25 16:43:17;;;;;;;2.65;0.70;;;;;;;;;;4989754;28;20802;-79
2022/10/25 16:45:46;;;;;;;2.80;0.95;;;;;;;;;;4990233;28;20050;-73
2022/10/25 16:48:17;;;;;;;1.35;0.68;;;;;;;;;;4990151;28;20053;-75
2022/10/25 16:50:46;;;;;;;1.80;0.90;;;;;;;;;;4990066;28;20046;-73
2022/10/25 16:53:22;;;;;;;0.93;0.90;;;;;;;;;;4990433;28;20057;-73
2022/10/25 16:55:52;;;;;;;2.72;0.60;;;;;;;;;;4990022;28;20046;-73
2022/10/25 16:58:22;;;;;;;0.70;0.63;;;;;;;;;;4990994;28;20069;-74
2022/10/25 17:00:52;;;;;;;0.80;0.63;;;;;;;;;;4989892;28;20065;-73
2022/10/25 17:03:23;;;;;;;1.60;0.65;;;;;;;;;;4990990;28;20057;-73
2022/10/25 17:05:52;;;;;;;1.25;0.52;;;;;;;;;;4989951;28;20057;-73
2022/10/25 17:08:23;;;;;;;2.53;0.65;;;;;;;;;;4989887;28;20054;-74
2022/10/25 17:10:53;;;;;;;1.20;0.75;;;;;;;;;;4989649;28;20899;-74
2022/10/25 17:13:22;;;;;;;3.83;1.00;;;;;;;;;;4989310;28;20061;-73
2022/10/25 17:15:53;;;;;;;0.70;0.70;;;;;;;;;;4988139;28;20053;-74
2022/10/25 17:18:25;;;;;;;0.75;0.60;;;;;;;;;;4989839;28;20058;-74
2022/10/25 17:20:57;;;;;;;2.70;0.55;;;;;;;;;;4988827;28;20053;-75
2022/10/25 17:23:26;;;;;;;0.90;0.60;;;;;;;;;;4989440;28;20038;-74
2022/10/25 17:26:00;;;;;;;1.48;0.40;;;;;;;;;;4989733;28;20516;-74
2022/10/25 17:28:31;;;;;;;4.00;0.50;;;;;;;;;;4989887;28;20042;-74
2022/10/25 17:31:06;;;;;;;1.88;0.52;;;;;;;;;;4989664;28;20061;-75
2022/10/25 17:33:36;;;;;;;1.70;0.80;;;;;;;;;;4989562;28;20061;-73
2022/10/25 17:36:11;;;;;;;0.85;0.60;;;;;;;;;;4989296;28;20485;-74
2022/10/25 17:38:42;;;;;;;1.00;0.32;;;;;;;;;;4989357;28;20509;-75
2022/10/25 17:41:13;;;;;;;3.10;0.70;;;;;;;;;;4989291;28;20062;-75